Time;durP1;ratioP1;P1;durP2;ratioP2;P2;SDS_P1;SDS_P2;PMS_P1;PMS_P2;Temp;Humidity;BMP_temperature;BMP_pressure;BME280_temperature;BME280_humidity;BME280_pressure;Samples;Min_cycle;Max_cycle;Signal;HPM_P1;HPM_P2
2022/03/19 00:00:42;;;;;;;16.88;8.02;;;;;;;-0.39;46.11;101825.88;4846620;29;20045;-72
2022/03/19 00:03:07;;;;;;;19.23;7.50;;;;;;;-0.43;46.43;101816.22;4847427;29;20087;-69
2022/03/19 00:05:31;;;;;;;18.50;6.68;;;;;;;-0.44;46.60;101810.13;4848111;29;20093;-73
2022/03/19 00:07:56;;;;;;;13.43;7.53;;;;;;;-0.45;46.03;101818.84;4843388;29;20420;-70
2022/03/19 00:10:22;;;;;;;17.92;7.55;;;;;;;-0.47;46.62;101802.25;4847526;29;20089;-73
2022/03/19 00:12:48;;;;;;;12.88;6.38;;;;;;;-0.48;46.83;101810.09;4863976;29;20059;-72
2022/03/19 00:15:13;;;;;;;18.00;7.57;;;;;;;-0.50;47.05;101803.97;4863653;29;20049;-72
2022/03/19 00:17:38;;;;;;;12.65;7.05;;;;;;;-0.52;46.96;101803.06;4862940;29;20044;-71
2022/03/19 00:20:04;;;;;;;10.73;5.63;;;;;;;-0.53;47.11;101801.31;4862861;29;20048;-72
2022/03/19 00:22:29;;;;;;;17.85;6.55;;;;;;;-0.55;47.65;101803.91;4851805;29;20049;-72
2022/03/19 00:24:54;;;;;;;11.82;6.28;;;;;;;-0.58;47.17;101800.41;4844498;29;20056;-71
2022/03/19 00:27:19;;;;;;;10.73;5.43;;;;;;;-0.59;46.93;101799.53;4827037;29;20052;-64
2022/03/19 00:29:44;;;;;;;9.35;5.20;;;;;;;-0.62;46.51;101799.50;4842678;29;20133;-67
2022/03/19 00:32:08;;;;;;;12.55;6.38;;;;;;;-0.63;46.91;101802.09;4859048;29;20044;-68
2022/03/19 00:34:34;;;;;;;9.63;5.88;;;;;;;-0.70;47.00;101810.78;4861850;29;20076;-67
2022/03/19 00:36:59;;;;;;;12.52;6.20;;;;;;;-0.73;47.26;101804.66;4854475;29;20040;-71
2022/03/19 00:39:24;;;;;;;12.05;6.40;;;;;;;-0.72;47.18;101818.63;4855821;29;20100;-67
2022/03/19 00:41:48;;;;;;;13.70;6.20;;;;;;;-0.74;47.60;101802.88;4841898;29;20053;-67
2022/03/19 00:44:13;;;;;;;15.18;5.97;;;;;;;-0.81;47.56;101810.69;4841814;29;20044;-66
2022/03/19 00:46:38;;;;;;;9.82;5.57;;;;;;;-0.84;47.81;101813.25;4855346;29;20101;-66
2022/03/19 00:49:02;;;;;;;14.60;6.47;;;;;;;-0.86;47.93;101802.78;4859626;29;20052;-67
2022/03/19 00:51:27;;;;;;;14.63;6.85;;;;;;;-0.86;48.31;101804.50;4845817;29;20097;-68
2022/03/19 00:53:52;;;;;;;10.82;5.22;;;;;;;-0.87;47.82;101805.38;4844396;29;20057;-69
2022/03/19 00:56:17;;;;;;;14.00;6.97;;;;;;;-0.87;47.73;101800.13;4844204;29;20072;-66
2022/03/19 00:58:41;;;;;;;11.57;5.90;;;;;;;-0.90;47.96;101792.25;4852476;29;20096;-65
2022/03/19 01:01:06;;;;;;;16.48;6.47;;;;;;;-0.93;48.04;101806.19;4864118;29;20099;-70
2022/03/19 01:03:31;;;;;;;13.18;6.03;;;;;;;-0.97;47.70;101804.41;4866345;29;20131;-68
2022/03/19 01:05:56;;;;;;;12.32;6.22;;;;;;;-1.07;48.51;101814.78;4831628;29;20045;-70
2022/03/19 01:08:21;;;;;;;10.63;5.45;;;;;;;-1.11;48.12;101801.63;4847511;29;20045;-70
2022/03/19 01:10:46;;;;;;;12.38;5.50;;;;;;;-1.10;48.26;101808.63;4846455;29;20049;-69
2022/03/19 01:13:10;;;;;;;8.82;4.75;;;;;;;-1.09;48.09;101804.28;4845367;29;20457;-76
2022/03/19 01:15:35;;;;;;;14.18;6.00;;;;;;;-1.10;47.88;101806.00;4845934;29;20120;-69
2022/03/19 01:18:03;;;;;;;12.75;6.18;;;;;;;-1.11;48.58;101811.22;4844558;29;20393;-70
2022/03/19 01:20:28;;;;;;;12.18;6.00;;;;;;;-1.11;48.37;101817.34;4845084;29;20550;-70
2022/03/19 01:22:52;;;;;;;8.05;5.20;;;;;;;-1.11;48.72;101819.97;4844842;29;20409;-75
2022/03/19 01:25:18;;;;;;;13.88;6.35;;;;;;;-1.08;48.46;101828.72;4844002;29;20551;-66
2022/03/19 01:27:45;;;;;;;9.23;5.55;;;;;;;-1.10;47.93;101819.09;4842963;29;20119;-66
2022/03/19 01:30:14;;;;;;;11.60;5.95;;;;;;;-1.13;48.52;101818.22;4843102;29;20045;-65
2022/03/19 01:32:40;;;;;;;14.02;6.25;;;;;;;-1.14;48.02;101826.94;4842594;29;20040;-64
2022/03/19 01:35:06;;;;;;;11.63;5.88;;;;;;;-1.15;48.71;101826.03;4842790;29;20049;-65
2022/03/19 01:37:30;;;;;;;12.65;6.20;;;;;;;-1.17;48.29;101822.53;4844822;29;20045;-69
2022/03/19 01:39:55;;;;;;;18.05;6.22;;;;;;;-1.18;48.10;101815.53;4856397;29;20044;-66
2022/03/19 01:42:32;;;;;;;11.48;6.80;;;;;;;-1.22;49.36;101831.16;4863496;29;20131;-66
2022/03/19 01:44:58;;;;;;;16.17;6.13;;;;;;;-1.28;48.20;101836.34;4857089;29;20814;-68
2022/03/19 01:47:24;;;;;;;14.90;5.43;;;;;;;-1.27;49.30;101825.03;4862231;29;20056;-69
2022/03/19 01:49:49;;;;;;;13.05;6.18;;;;;;;-1.27;49.24;101830.25;4859876;29;20595;-68
2022/03/19 01:52:14;;;;;;;9.77;5.40;;;;;;;-1.28;49.34;101831.13;4862655;29;20127;-68
2022/03/19 01:54:44;;;;;;;11.07;5.90;;;;;;;-1.27;49.69;101828.53;4868027;29;20123;-72
2022/03/19 01:57:11;;;;;;;13.50;6.18;;;;;;;-1.30;49.76;101832.84;4870047;29;20036;-69
2022/03/19 01:59:37;;;;;;;11.50;6.05;;;;;;;-1.37;49.19;101828.41;4869432;29;20039;-69
2022/03/19 02:02:07;;;;;;;17.90;6.15;;;;;;;-1.42;48.91;101836.19;4864216;29;20067;-71
2022/03/19 02:04:34;;;;;;;14.48;6.10;;;;;;;-1.40;50.07;101841.44;4865614;29;20515;-67
2022/03/19 02:07:00;;;;;;;11.82;5.53;;;;;;;-1.41;49.91;101845.78;4846520;29;20053;-68
2022/03/19 02:09:25;;;;;;;9.75;5.72;;;;;;;-1.47;49.70;101837.88;4863966;29;20040;-69
2022/03/19 02:11:50;;;;;;;14.35;7.13;;;;;;;-1.51;49.64;101843.91;4844971;29;20052;-67
2022/03/19 02:14:15;;;;;;;11.88;5.13;;;;;;;-1.49;49.16;101842.19;4846164;29;20564;-67
2022/03/19 02:16:41;;;;;;;12.10;6.47;;;;;;;-1.48;49.38;101846.56;4846076;29;20128;-69
2022/03/19 02:19:06;;;;;;;8.40;4.78;;;;;;;-1.50;49.36;101841.31;4846468;29;20147;-71
2022/03/19 02:21:44;;;;;;;16.27;5.53;;;;;;;-1.46;49.23;101839.59;4846710;29;20049;-69
2022/03/19 02:26:53;;;;;;;14.43;5.20;;;;;;;-1.51;49.25;101841.31;4844653;29;20053;-68
2022/03/19 02:29:19;;;;;;;12.57;5.82;;;;;;;-1.56;49.43;101838.63;4846254;29;20048;-69
2022/03/19 02:31:46;;;;;;;11.07;6.10;;;;;;;-1.57;49.23;101843.81;4854632;29;20107;-66
2022/03/19 02:34:11;;;;;;;14.77;6.65;;;;;;;-1.63;49.91;101839.41;4846167;29;20044;-68
2022/03/19 02:36:37;;;;;;;11.05;5.80;;;;;;;-1.66;50.07;101846.31;4845661;29;20049;-63
2022/03/19 02:39:17;;;;;;;12.73;6.47;;;;;;;-1.61;50.39;101844.66;4847122;29;20131;-71
2022/03/19 02:41:46;;;;;;;9.25;5.57;;;;;;;-1.67;49.76;101849.78;4845202;29;20474;-65
2022/03/19 02:44:12;;;;;;;12.38;5.80;;;;;;;-1.69;50.06;101844.53;4850979;29;20048;-65
2022/03/19 02:46:42;;;;;;;15.40;6.18;;;;;;;-1.66;50.53;101843.69;4863363;29;20048;-64
2022/03/19 02:49:07;;;;;;;13.75;5.60;;;;;;;-1.70;50.55;101849.78;4863643;29;20051;-62
2022/03/19 02:51:37;;;;;;;11.90;6.75;;;;;;;-1.71;50.39;101850.63;4863490;29;20048;-66
2022/03/19 02:54:04;;;;;;;12.30;5.32;;;;;;;-1.72;50.69;101847.13;4857098;29;20048;-63
2022/03/19 02:56:28;;;;;;;11.68;6.30;;;;;;;-1.73;50.29;101845.38;4853883;29;20045;-64
2022/03/19 02:58:53;;;;;;;11.75;6.40;;;;;;;-1.74;51.22;101851.44;4844927;29;20053;-64
2022/03/19 03:01:18;;;;;;;9.98;5.75;;;;;;;-1.75;51.43;101851.44;4842719;29;20048;-64
2022/03/19 03:03:43;;;;;;;11.57;6.50;;;;;;;-1.78;51.16;101841.78;4850127;29;20167;-63
2022/03/19 03:06:08;;;;;;;14.55;5.47;;;;;;;-1.78;51.53;101846.16;4848039;29;20052;-64
2022/03/19 03:08:32;;;;;;;10.65;6.68;;;;;;;-1.81;51.26;101851.34;4858714;29;20052;-64
2022/03/19 03:10:58;;;;;;;15.90;5.80;;;;;;;-1.84;51.51;101852.19;4856437;29;20040;-63
2022/03/19 03:13:24;;;;;;;11.73;6.15;;;;;;;-1.89;51.27;101851.22;4863595;29;20040;-68
2022/03/19 03:15:48;;;;;;;11.40;6.25;;;;;;;-1.90;51.78;101839.00;4863374;29;20415;-68
2022/03/19 03:18:13;;;;;;;12.15;6.10;;;;;;;-1.90;50.94;101841.63;4866788;29;20065;-68
2022/03/19 03:20:38;;;;;;;10.82;5.03;;;;;;;-1.92;51.75;101846.81;4870012;29;20044;-66
2022/03/19 03:23:04;;;;;;;9.65;6.57;;;;;;;-1.93;52.03;101850.31;4857064;29;20529;-70
2022/03/19 03:25:28;;;;;;;11.60;6.22;;;;;;;-1.93;51.87;101846.84;4854631;29;20052;-70
2022/03/19 03:27:53;;;;;;;11.65;5.53;;;;;;;-1.93;51.48;101850.31;4854810;29;20048;-70
2022/03/19 03:30:20;;;;;;;13.13;6.40;;;;;;;-1.95;51.54;101844.19;4853624;29;20052;-71
2022/03/19 03:32:45;;;;;;;9.02;5.55;;;;;;;-1.94;51.26;101852.91;4852640;29;20155;-71
2022/03/19 03:35:10;;;;;;;11.25;5.38;;;;;;;-1.93;51.59;101849.44;4864286;29;20189;-70
2022/03/19 03:37:35;;;;;;;11.75;6.03;;;;;;;-1.92;50.85;101854.66;4862116;29;20066;-69
2022/03/19 03:39:59;;;;;;;11.27;5.93;;;;;;;-1.90;51.06;101857.31;4859226;29;20053;-72
2022/03/19 03:42:25;;;;;;;9.05;5.55;;;;;;;-1.92;51.65;101854.66;4850623;29;20126;-70
2022/03/19 03:44:49;;;;;;;11.18;5.53;;;;;;;-1.92;50.96;101859.91;4850260;29;20053;-69
2022/03/19 03:47:14;;;;;;;11.77;6.13;;;;;;;-1.90;50.92;101855.56;4846170;29;20457;-69
2022/03/19 03:49:39;;;;;;;7.88;5.55;;;;;;;-1.85;50.90;101856.53;4844229;29;20694;-68
2022/03/19 03:52:05;;;;;;;10.82;6.13;;;;;;;-1.74;50.99;101869.75;4847283;29;20540;-63
2022/03/19 03:54:30;;;;;;;11.63;6.15;;;;;;;-1.63;50.56;101862.06;4846755;29;20517;-63
2022/03/19 03:56:55;;;;;;;8.10;5.70;;;;;;;-1.50;49.82;101863.97;4842753;29;20040;-63
2022/03/19 03:59:23;;;;;;;13.60;6.75;;;;;;;-1.37;49.91;101860.66;4844151;29;20104;-63
2022/03/19 04:01:47;;;;;;;12.77;6.20;;;;;;;-1.21;50.30;101865.22;4842828;29;20488;-63
2022/03/19 04:04:12;;;;;;;11.52;5.95;;;;;;;-1.02;49.67;101855.84;4842751;29;20049;-64
2022/03/19 04:06:37;;;;;;;12.63;7.13;;;;;;;-0.79;49.63;101864.81;4843700;29;20132;-63
2022/03/19 04:09:02;;;;;;;12.25;6.68;;;;;;;-0.57;49.24;101858.06;4826764;29;20053;-64
2022/03/19 04:11:26;;;;;;;12.55;7.15;;;;;;;-0.31;47.93;101875.72;4842815;29;20500;-63
2022/03/19 04:13:51;;;;;;;15.32;6.38;;;;;;;-0.04;47.76;101868.09;4843851;29;20519;-63
2022/03/19 04:16:16;;;;;;;9.55;5.78;;;;;;;0.25;47.60;101863.03;4843542;29;20048;-65
2022/03/19 04:18:41;;;;;;;20.38;7.28;;;;;;;0.53;47.10;101864.94;4843645;29;20053;-62
2022/03/19 04:21:05;;;;;;;17.25;6.85;;;;;;;0.83;46.49;101865.94;4843608;29;20550;-64
2022/03/19 04:23:30;;;;;;;12.82;6.55;;;;;;;1.04;46.37;101869.50;4843419;29;20060;-64
2022/03/19 04:25:55;;;;;;;18.90;7.68;;;;;;;1.24;45.84;101877.44;4842331;29;20089;-63
2022/03/19 04:28:19;;;;;;;13.90;8.07;;;;;;;1.45;45.54;101871.38;4843625;29;20056;-63
2022/03/19 04:30:44;;;;;;;15.20;7.32;;;;;;;1.61;44.68;101894.16;4843302;29;20060;-63
2022/03/19 04:33:09;;;;;;;13.57;6.75;;;;;;;1.83;43.87;101864.38;4843521;29;20052;-63
2022/03/19 04:38:20;;;;;;;14.32;7.20;;;;;;;2.34;43.32;101865.19;4843457;29;20053;-64
2022/03/19 04:40:47;;;;;;;19.50;7.40;;;;;;;2.61;42.92;101873.88;4843205;29;20487;-63
2022/03/19 04:43:12;;;;;;;17.25;8.02;;;;;;;2.84;42.21;101870.25;4843317;29;20505;-64
2022/03/19 04:45:38;;;;;;;14.50;8.13;;;;;;;3.10;42.07;101879.81;4841917;29;20564;-63
2022/03/19 04:48:04;;;;;;;13.98;7.80;;;;;;;3.35;41.41;101884.06;4843080;29;20520;-63
2022/03/19 04:50:28;;;;;;;23.67;10.20;;;;;;;3.54;40.33;101884.81;4842068;29;20056;-64
2022/03/19 04:52:53;;;;;;;25.13;9.82;;;;;;;3.67;39.37;101891.75;4842271;29;20208;-63
2022/03/19 04:55:20;;;;;;;17.52;9.82;;;;;;;3.85;39.30;101888.97;4843545;29;20052;-63
2022/03/19 04:57:46;;;;;;;15.05;8.75;;;;;;;4.10;38.72;101888.75;4843409;29;20056;-64
2022/03/19 05:00:12;;;;;;;23.13;11.02;;;;;;;4.32;38.45;101892.94;4843583;29;20044;-65
2022/03/19 05:02:36;;;;;;;16.80;9.13;;;;;;;4.55;37.97;101893.59;4842627;29;20041;-64
2022/03/19 05:05:01;;;;;;;16.55;8.10;;;;;;;4.71;37.51;101884.59;4842687;29;20049;-64
2022/03/19 05:07:28;;;;;;;19.90;7.43;;;;;;;4.98;36.91;101890.44;4842691;29;20045;-64
2022/03/19 05:12:40;;;;;;;14.95;8.05;;;;;;;5.67;35.43;101893.84;4842632;29;20108;-65
2022/03/19 05:15:07;;;;;;;18.35;8.02;;;;;;;6.01;35.49;101896.00;4842534;29;20056;-64
2022/03/19 05:17:32;;;;;;;16.67;8.00;;;;;;;6.25;35.40;101887.63;4842423;29;20045;-64
2022/03/19 05:19:56;;;;;;;17.00;8.82;;;;;;;6.43;34.91;101897.88;4841317;29;20568;-64
2022/03/19 05:22:21;;;;;;;18.23;8.18;;;;;;;6.68;34.51;101894.75;4842493;29;20045;-64
2022/03/19 05:24:47;;;;;;;20.20;8.95;;;;;;;6.88;34.57;101895.28;4846410;29;20064;-64
2022/03/19 05:27:11;;;;;;;19.80;8.95;;;;;;;7.06;33.67;101897.53;4846465;29;21059;-63
2022/03/19 05:29:38;;;;;;;15.80;8.18;;;;;;;7.23;33.70;101898.03;4846640;29;20568;-64
2022/03/19 05:32:07;;;;;;;15.43;8.30;;;;;;;7.56;34.32;101909.66;4846243;29;20691;-65
2022/03/19 05:34:32;;;;;;;20.98;8.93;;;;;;;8.07;32.64;101901.38;4829781;29;20428;-65
2022/03/19 05:37:04;;;;;;;18.15;8.52;;;;;;;8.61;31.55;101908.84;4844867;29;20044;-64
2022/03/19 05:39:30;;;;;;;17.55;8.60;;;;;;;9.10;30.76;101901.22;4845133;29;20052;-63
2022/03/19 05:41:55;;;;;;;27.17;11.07;;;;;;;9.57;28.96;101903.34;4844959;29;20051;-65
2022/03/19 05:44:20;;;;;;;21.27;10.30;;;;;;;10.02;28.99;101898.34;4845274;29;20048;-63
2022/03/19 05:46:44;;;;;;;22.63;10.10;;;;;;;10.61;28.86;101893.63;4845795;29;20080;-65
2022/03/19 05:49:09;;;;;;;23.80;10.60;;;;;;;11.20;27.58;101896.75;4846104;29;20044;-63
2022/03/19 05:51:34;;;;;;;21.50;9.75;;;;;;;11.60;27.48;101908.56;4846185;29;20043;-64
2022/03/19 05:53:59;;;;;;;23.30;9.88;;;;;;;11.97;26.74;101900.81;4846061;29;20055;-63
2022/03/19 05:56:24;;;;;;;18.08;10.00;;;;;;;12.35;26.21;101896.53;4844589;29;20047;-63
2022/03/19 05:58:51;;;;;;;20.55;8.50;;;;;;;12.64;25.78;101897.94;4845624;29;20056;-63
2022/03/19 06:01:16;;;;;;;13.13;8.82;;;;;;;13.17;25.31;101901.84;4844609;29;20068;-65
2022/03/19 06:03:41;;;;;;;19.15;9.25;;;;;;;13.79;24.21;101901.53;4845742;29;20127;-63
2022/03/19 06:06:05;;;;;;;15.35;8.45;;;;;;;14.43;23.68;101901.88;4845721;29;20113;-65
2022/03/19 06:08:30;;;;;;;20.20;9.65;;;;;;;15.08;22.93;101902.03;4846143;29;20080;-63
2022/03/19 06:10:56;;;;;;;18.85;9.40;;;;;;;15.70;22.51;101897.66;4829401;29;20611;-63
2022/03/19 06:13:21;;;;;;;17.73;9.88;;;;;;;16.20;21.95;101894.75;4844573;29;20057;-64
2022/03/19 06:15:45;;;;;;;14.85;8.70;;;;;;;16.54;21.36;101896.28;4845731;29;20048;-64
2022/03/19 06:18:10;;;;;;;18.75;8.82;;;;;;;16.66;20.82;101888.38;4845429;29;20072;-63
2022/03/19 06:20:35;;;;;;;20.30;8.70;;;;;;;16.93;20.61;101887.63;4845724;29;20048;-65
2022/03/19 06:23:00;;;;;;;20.65;9.20;;;;;;;17.32;20.39;101898.56;4845581;29;20048;-64
2022/03/19 06:25:25;;;;;;;14.73;8.00;;;;;;;17.94;20.02;101895.50;4843076;29;20064;-63
2022/03/19 06:27:49;;;;;;;16.05;8.18;;;;;;;18.57;19.17;101897.47;4845303;29;20080;-63
2022/03/19 06:30:16;;;;;;;16.45;8.85;;;;;;;19.23;18.22;101905.41;4845823;29;20507;-62
2022/03/19 06:32:42;;;;;;;15.43;8.20;;;;;;;19.83;18.13;101908.22;4851256;29;20120;-62
2022/03/19 06:37:19;;;;;;;17.30;8.95;;;;;;;20.35;17.45;101916.94;4850832;29;20049;-62
2022/03/19 06:37:58;;;;;;;12.93;7.70;;;;;;;20.73;17.57;101904.03;4852149;29;20115;-63
2022/03/19 06:40:23;;;;;;;18.85;8.57;;;;;;;21.19;17.05;101895.88;4849993;29;20083;-64
2022/03/19 06:42:48;;;;;;;15.18;8.20;;;;;;;21.73;16.37;101895.06;4848511;29;20049;-62
2022/03/19 06:45:13;;;;;;;20.42;8.18;;;;;;;22.20;16.01;101896.56;4846042;29;20057;-64
2022/03/19 06:47:38;;;;;;;12.95;7.28;;;;;;;22.53;15.79;101895.53;4845823;29;20068;-64
2022/03/19 06:50:03;;;;;;;17.17;7.63;;;;;;;22.94;15.07;101897.38;4844180;29;20059;-65
2022/03/19 06:52:29;;;;;;;22.80;8.48;;;;;;;23.44;14.80;101892.03;4844189;29;20060;-64
2022/03/19 06:54:53;;;;;;;15.48;7.97;;;;;;;23.94;14.43;101897.47;4845105;29;20072;-62
2022/03/19 06:57:18;;;;;;;13.88;8.05;;;;;;;24.42;14.35;101889.34;4844863;29;20045;-64
2022/03/19 06:59:43;;;;;;;13.73;7.28;;;;;;;24.59;14.23;101896.81;4844083;29;20063;-63
2022/03/19 07:02:07;;;;;;;12.40;6.40;;;;;;;24.72;13.70;101899.22;4844142;29;20131;-63
2022/03/19 07:04:32;;;;;;;11.43;6.80;;;;;;;24.94;13.70;101902.47;4845488;29;20421;-64
2022/03/19 07:06:57;;;;;;;17.65;8.45;;;;;;;25.35;13.55;101900.34;4845202;29;20635;-64
2022/03/19 07:09:21;;;;;;;18.67;8.95;;;;;;;25.67;12.76;101895.31;4845794;29;20048;-71
2022/03/19 07:11:46;;;;;;;17.38;8.52;;;;;;;26.03;12.65;101898.94;4854736;29;20109;-64
2022/03/19 07:14:11;;;;;;;25.35;8.30;;;;;;;26.43;12.47;101900.38;4856375;29;20048;-64
2022/03/19 07:16:38;;;;;;;15.25;7.68;;;;;;;26.87;12.28;101906.69;4850663;29;20049;-63
2022/03/19 07:19:04;;;;;;;18.42;7.25;;;;;;;27.15;12.11;101906.56;4845809;29;20548;-64
2022/03/19 07:21:29;;;;;;;19.17;7.65;;;;;;;27.04;11.82;101903.09;4845364;29;20128;-63
2022/03/19 07:23:53;;;;;;;13.27;7.13;;;;;;;27.02;11.92;101910.59;4828061;29;20156;-63
2022/03/19 07:26:18;;;;;;;9.82;6.75;;;;;;;27.20;11.50;101909.69;4843493;29;20088;-64
2022/03/19 07:28:43;;;;;;;12.80;7.00;;;;;;;27.54;11.41;101910.50;4844593;29;20045;-63
2022/03/19 07:31:07;;;;;;;11.35;6.70;;;;;;;27.91;11.27;101907.41;4828431;29;20055;-63
2022/03/19 07:33:36;;;;;;;13.82;6.90;;;;;;;28.08;10.71;101913.81;4845163;29;20075;-63
2022/03/19 07:36:02;;;;;;;14.43;6.65;;;;;;;28.16;10.92;101922.03;4845075;29;20044;-65
2022/03/19 07:38:27;;;;;;;16.00;7.05;;;;;;;28.16;10.90;101922.03;4849930;29;20045;-63
2022/03/19 07:43:35;;;;;;;14.50;7.15;;;;;;;27.68;11.09;101909.06;4844451;29;20052;-64
2022/03/19 07:46:00;;;;;;;10.52;6.57;;;;;;;27.56;10.91;101911.22;4827436;29;20041;-64
2022/03/19 07:48:25;;;;;;;10.48;6.57;;;;;;;27.78;10.86;101905.16;4843353;29;20056;-64
2022/03/19 07:50:49;;;;;;;12.90;6.35;;;;;;;28.19;10.79;101908.03;4844653;29;20048;-63
2022/03/19 07:53:14;;;;;;;16.35;7.05;;;;;;;28.31;10.60;101909.41;4846402;29;20177;-64
2022/03/19 07:55:39;;;;;;;10.40;6.82;;;;;;;28.30;10.57;101906.84;4848699;29;20045;-64
2022/03/19 07:58:04;;;;;;;15.10;7.45;;;;;;;28.62;10.24;101906.84;4848618;29;20989;-71
2022/03/19 08:00:29;;;;;;;14.70;7.82;;;;;;;29.18;10.24;101907.78;4844176;29;20052;-70
2022/03/19 08:02:54;;;;;;;15.15;7.93;;;;;;;29.26;9.97;101916.88;4845295;29;20052;-71
2022/03/19 08:05:19;;;;;;;19.65;9.25;;;;;;;29.27;10.05;101915.84;4844746;29;20048;-71
2022/03/19 08:07:44;;;;;;;17.05;8.20;;;;;;;28.96;10.13;101912.16;4843068;29;20053;-69
2022/03/19 08:10:10;;;;;;;11.90;7.90;;;;;;;29.00;10.29;101919.00;4843099;29;20049;-70
2022/03/19 08:12:37;;;;;;;18.52;8.40;;;;;;;29.47;10.17;101913.56;4844364;29;20036;-70
2022/03/19 08:15:03;;;;;;;12.38;7.78;;;;;;;29.78;9.86;101913.59;4843835;29;20044;-70
2022/03/19 08:17:29;;;;;;;15.52;9.35;;;;;;;29.96;9.74;101914.19;4843993;29;20168;-69
2022/03/19 08:19:56;;;;;;;13.20;8.30;;;;;;;30.49;9.58;101912.44;4843999;29;20128;-70
2022/03/19 08:22:21;;;;;;;18.52;8.68;;;;;;;30.65;9.72;101909.56;4844141;29;20048;-70
2022/03/19 08:24:46;;;;;;;17.30;9.50;;;;;;;31.23;9.33;101907.97;4843170;29;20110;-70
2022/03/19 08:27:11;;;;;;;18.05;9.45;;;;;;;31.80;9.13;101910.03;4842723;29;20053;-71
2022/03/19 08:29:36;;;;;;;16.02;8.93;;;;;;;32.20;8.92;101916.00;4844604;29;20052;-69
2022/03/19 08:32:00;;;;;;;17.15;9.95;;;;;;;32.61;8.66;101924.50;4843942;29;20045;-69
2022/03/19 08:34:25;;;;;;;15.05;8.40;;;;;;;32.74;8.53;101911.66;4846576;29;20093;-70
2022/03/19 08:36:50;;;;;;;16.30;9.23;;;;;;;32.76;8.51;101914.22;4829082;29;20417;-69
2022/03/19 08:41:58;;;;;;;16.65;8.02;;;;;;;33.07;8.28;101905.56;4843799;29;20531;-68
2022/03/19 08:44:23;;;;;;;14.75;9.10;;;;;;;33.44;8.37;101899.63;4844948;29;20048;-69
2022/03/19 08:46:49;;;;;;;14.05;8.80;;;;;;;33.40;8.22;101903.88;4843289;29;20130;-69
2022/03/19 08:49:14;;;;;;;14.32;8.40;;;;;;;33.72;7.97;101909.75;4843858;29;20051;-68
2022/03/19 08:51:39;;;;;;;15.07;9.35;;;;;;;33.77;7.91;101910.84;4842458;29;20049;-71
2022/03/19 08:54:05;;;;;;;27.98;10.80;;;;;;;33.80;7.84;101915.97;4844035;29;20606;-69
2022/03/19 08:56:30;;;;;;;19.63;8.93;;;;;;;33.68;8.15;101911.22;4843014;29;20553;-69
2022/03/19 08:58:55;;;;;;;14.82;8.75;;;;;;;33.59;8.00;101912.44;4843297;29;20454;-71
2022/03/19 09:01:20;;;;;;;14.45;9.40;;;;;;;33.33;7.96;101914.03;4843891;29;20504;-71
2022/03/19 09:03:44;;;;;;;22.08;9.57;;;;;;;33.35;8.20;101911.91;4846793;29;20052;-71
2022/03/19 09:06:14;;;;;;;16.52;9.40;;;;;;;33.59;8.04;101918.00;4852231;29;20041;-72
2022/03/19 09:08:39;;;;;;;19.70;9.68;;;;;;;34.09;7.76;101922.22;4848143;29;20458;-72
2022/03/19 09:11:04;;;;;;;15.27;8.40;;;;;;;34.55;7.45;101922.31;4851260;29;20041;-71
2022/03/19 09:13:29;;;;;;;21.63;10.43;;;;;;;34.85;7.37;101920.03;4857448;29;20045;-69
2022/03/19 09:15:53;;;;;;;18.77;8.38;;;;;;;35.11;7.27;101911.66;4856730;29;20060;-67
2022/03/19 09:18:20;;;;;;;20.30;8.88;;;;;;;34.99;7.09;101921.69;4852225;29;20044;-69
2022/03/19 09:20:44;;;;;;;14.32;8.93;;;;;;;34.85;7.40;101915.34;4845382;29;20037;-72
2022/03/19 09:23:09;;;;;;;17.15;9.07;;;;;;;35.05;7.39;101920.00;4842679;29;20063;-71
2022/03/19 09:25:34;;;;;;;14.05;8.77;;;;;;;35.28;7.10;101920.41;4843233;29;20870;-71
2022/03/19 09:27:59;;;;;;;16.08;8.52;;;;;;;35.46;7.29;101916.94;4842350;29;20080;-70
2022/03/19 09:30:23;;;;;;;25.55;9.32;;;;;;;35.58;7.39;101923.50;4843889;29;20073;-70
2022/03/19 09:32:48;;;;;;;16.38;10.00;;;;;;;35.57;7.06;101922.66;4842542;29;20409;-70
2022/03/19 09:35:13;;;;;;;15.90;8.68;;;;;;;35.11;7.25;101924.66;4849229;29;20137;-70
2022/03/19 09:37:38;;;;;;;16.17;8.45;;;;;;;34.82;7.44;101921.31;4861799;29;20388;-71
2022/03/19 09:40:04;;;;;;;11.80;8.27;;;;;;;34.67;7.55;101931.72;4859913;29;20052;-70
2022/03/19 09:42:29;;;;;;;14.40;8.05;;;;;;;34.46;7.36;101918.91;4861027;29;20412;-71
2022/03/19 09:44:54;;;;;;;13.40;7.53;;;;;;;34.29;7.33;101925.94;4861181;29;20436;-70
2022/03/19 09:47:18;;;;;;;17.20;7.82;;;;;;;34.39;7.53;101920.00;4861003;29;20045;-70
2022/03/19 09:49:43;;;;;;;12.55;7.88;;;;;;;34.51;7.34;101918.28;4860363;29;20622;-70
2022/03/19 09:52:11;;;;;;;15.70;9.48;;;;;;;34.70;7.45;101927.66;4860075;29;20633;-71
2022/03/19 09:54:36;;;;;;;17.73;8.27;;;;;;;34.75;7.23;101914.94;4860125;29;20499;-70
2022/03/19 09:57:01;;;;;;;17.42;8.23;;;;;;;34.40;7.43;101917.00;4860769;29;20130;-72
2022/03/19 09:59:27;;;;;;;10.23;7.43;;;;;;;34.29;7.53;101912.09;4862038;29;20055;-71
2022/03/19 10:01:52;;;;;;;15.38;8.57;;;;;;;34.57;7.55;101920.19;4862906;29;20055;-70
2022/03/19 10:04:19;;;;;;;14.75;7.82;;;;;;;35.10;7.54;101928.53;4863322;29;20412;-70
2022/03/19 10:09:47;;;;;;;17.05;8.20;;;;;;;35.81;7.31;101929.41;4864250;29;20518;-72
2022/03/19 10:12:27;;;;;;;17.05;7.85;;;;;;;35.55;7.05;101926.75;4864806;29;20096;-71
2022/03/19 10:14:54;;;;;;;8.98;6.90;;;;;;;34.36;7.22;101928.72;4863918;29;20135;-68
2022/03/19 10:17:32;;;;;;;14.43;8.05;;;;;;;34.02;7.72;101925.00;4864604;29;20032;-70
2022/03/19 10:20:05;;;;;;;11.48;7.15;;;;;;;33.22;7.78;101933.91;4864644;29;20067;-69
2022/03/19 10:22:30;;;;;;;11.77;7.13;;;;;;;32.28;8.36;101941.59;4865429;29;20096;-71
2022/03/19 10:25:10;;;;;;;10.82;7.38;;;;;;;31.04;8.70;101934.13;4864642;29;20602;-70
2022/03/19 10:27:41;;;;;;;12.60;7.50;;;;;;;28.20;10.03;101937.19;4876076;29;20059;-71
2022/03/19 10:30:23;;;;;;;9.40;6.88;;;;;;;25.56;11.54;101925.53;4866504;29;20490;-70
2022/03/19 10:32:53;;;;;;;13.30;7.10;;;;;;;22.94;13.22;101919.16;4847914;29;20052;-72
2022/03/19 10:38:22;;;;;;;10.55;6.38;;;;;;;19.26;15.60;101916.00;4836900;29;20052;-67
2022/03/19 10:40:49;;;;;;;11.90;6.45;;;;;;;18.05;16.67;101918.09;4845252;29;20044;-64
2022/03/19 10:43:17;;;;;;;11.25;6.25;;;;;;;17.06;17.38;101924.47;4852401;29;20120;-64
2022/03/19 10:45:43;;;;;;;8.48;5.47;;;;;;;16.20;18.34;101919.84;4851500;29;20045;-64
2022/03/19 10:48:12;;;;;;;16.02;6.75;;;;;;;15.61;18.70;101915.19;4845704;29;20160;-64
2022/03/19 10:50:39;;;;;;;12.02;6.63;;;;;;;15.02;19.24;101911.25;4845707;29;20865;-63
2022/03/19 10:53:06;;;;;;;10.52;5.60;;;;;;;14.44;18.98;101914.38;4861021;29;20300;-64
2022/03/19 10:55:30;;;;;;;11.45;5.97;;;;;;;13.90;20.56;101909.03;4858864;29;20170;-64
2022/03/19 10:57:55;;;;;;;10.65;6.00;;;;;;;13.50;20.33;101905.63;4853801;29;20072;-64
2022/03/19 11:00:20;;;;;;;9.63;6.00;;;;;;;13.22;21.15;101908.72;4863704;29;20044;-63
2022/03/19 11:02:48;;;;;;;11.38;6.32;;;;;;;12.94;21.29;101909.09;4844875;29;20517;-64
2022/03/19 11:05:17;;;;;;;13.90;6.45;;;;;;;12.72;21.27;101908.31;4846894;29;20048;-65
2022/03/19 11:07:44;;;;;;;8.50;5.90;;;;;;;12.47;21.97;101913.00;4863421;29;20080;-64
2022/03/19 11:10:10;;;;;;;10.55;6.00;;;;;;;12.28;22.13;101912.94;4863662;29;20044;-64
2022/03/19 11:12:40;;;;;;;9.00;6.13;;;;;;;12.11;21.71;101905.59;4864041;29;20878;-64
2022/03/19 11:15:05;;;;;;;19.35;5.95;;;;;;;11.90;22.18;101911.84;4864398;29;20048;-64
2022/03/19 11:17:32;;;;;;;11.73;5.50;;;;;;;11.68;22.68;101901.13;4849835;29;20366;-64
2022/03/19 11:20:04;;;;;;;12.52;6.10;;;;;;;11.56;23.33;101901.59;4868186;29;20047;-64
2022/03/19 11:22:47;;;;;;;10.93;5.82;;;;;;;11.48;23.12;101901.03;4865802;29;20044;-63
2022/03/19 11:25:31;;;;;;;12.65;6.47;;;;;;;11.47;22.59;101902.84;4869996;29;20082;-64
2022/03/19 11:27:59;;;;;;;10.90;5.88;;;;;;;11.31;23.14;101899.00;4869675;29;20103;-65
2022/03/19 11:30:26;;;;;;;14.77;6.68;;;;;;;11.19;23.74;101904.81;4873523;29;20047;-67
2022/03/19 11:33:07;;;;;;;9.77;5.85;;;;;;;11.21;23.91;101895.81;4870683;29;20059;-66